Time;durP1;ratioP1;P1;durP2;ratioP2;P2;SDS_P1;SDS_P2;PMS_P1;PMS_P2;Temp;Humidity;BMP_temperature;BMP_pressure;BME280_temperature;BME280_humidity;BME280_pressure;Samples;Min_cycle;Max_cycle;Signal;HPM_P1;HPM_P2
2023/03/19 00:00:00;;;;;;;;;;;;;;;15.11;42.38;96819.16;4234188;28;5705;-78
2023/03/19 00:02:03;;;;;;;;;;;;;;;15.09;42.24;96822.03;4234287;28;6241;-78
2023/03/19 00:04:19;;;;;;;;;;;;;;;15.00;42.53;96826.00;4234150;28;5761;-78
2023/03/19 00:06:22;;;;;;;;;;;;;;;14.98;42.55;96833.41;4234060;28;5792;-78
2023/03/19 00:08:25;;;;;;;;;;;;;;;14.95;43.03;96828.53;4226086;28;5665;-78
2023/03/19 00:10:28;;;;;;;;;;;;;;;14.92;43.23;96822.81;4237264;28;5670;-78
2023/03/19 00:12:32;;;;;;;;;;;;;;;14.88;43.23;96821.63;4237370;28;5662;-78
2023/03/19 00:14:35;;;;;;;;;;;;;;;14.85;43.47;96820.22;4237441;28;6437;-78
2023/03/19 00:16:39;;;;;;;;;;;;;;;14.81;43.63;96832.31;4237524;28;5654;-79
2023/03/19 00:18:42;;;;;;;;;;;;;;;14.81;43.83;96827.81;4236981;28;5745;-78
2023/03/19 00:20:45;;;;;;;;;;;;;;;14.79;44.13;96826.41;4237114;28;5658;-79
2023/03/19 00:22:48;;;;;;;;;;;;;;;14.76;44.07;96840.97;4237209;28;5745;-78
2023/03/19 00:24:52;;;;;;;;;;;;;;;14.77;44.44;96841.78;4237258;28;5752;-77
2023/03/19 00:26:55;;;;;;;;;;;;;;;14.76;44.54;96834.84;4237082;28;5749;-78
2023/03/19 00:28:58;;;;;;;;;;;;;;;14.75;44.74;96828.72;4236938;28;5721;-77
2023/03/19 00:31:08;;;;;;;;;;;;;;;14.73;44.81;96828.13;4236974;28;5665;-78
2023/03/19 00:33:13;;;;;;;;;;;;;;;14.72;44.70;96837.13;4237180;27;5670;-78
2023/03/19 00:35:16;;;;;;;;;;;;;;;14.70;45.11;96835.69;4237019;28;5661;-78
2023/03/19 00:37:19;;;;;;;;;;;;;;;14.72;45.11;96833.63;4234988;28;5676;-77
2023/03/19 00:39:22;;;;;;;;;;;;;;;14.71;45.24;96832.00;4237005;28;5658;-78
2023/03/19 00:41:25;;;;;;;;;;;;;;;14.70;45.25;96836.50;4235037;28;5677;-78
2023/03/19 00:43:28;;;;;;;;;;;;;;;14.70;45.39;96827.72;4235508;28;5797;-78
2023/03/19 00:45:31;;;;;;;;;;;;;;;14.66;45.82;96829.19;4231316;28;7282;-77
2023/03/19 00:47:34;;;;;;;;;;;;;;;14.66;45.88;96837.19;4236488;28;5642;-78
2023/03/19 00:49:39;;;;;;;;;;;;;;;14.67;45.78;96836.16;4236779;28;5754;-78
2023/03/19 00:51:42;;;;;;;;;;;;;;;14.69;45.96;96839.41;4232442;28;5681;-78
2023/03/19 00:53:45;;;;;;;;;;;;;;;14.70;45.98;96838.38;4236774;27;5756;-78
2023/03/19 00:55:48;;;;;;;;;;;;;;;14.69;46.05;96836.72;4230812;28;5666;-78
2023/03/19 00:57:52;;;;;;;;;;;;;;;14.68;46.43;96835.09;4237084;28;5645;-78
2023/03/19 00:59:55;;;;;;;;;;;;;;;14.68;46.54;96840.44;4235745;28;5814;-77
2023/03/19 01:01:58;;;;;;;;;;;;;;;14.68;46.69;96829.78;4234187;28;5904;-78
2023/03/19 01:04:01;;;;;;;;;;;;;;;14.66;46.36;96829.19;4235531;28;5728;-78
2023/03/19 01:06:06;;;;;;;;;;;;;;;14.65;46.77;96833.72;4233140;28;5771;-77
2023/03/19 01:08:09;;;;;;;;;;;;;;;14.64;46.43;96829.41;4222451;28;5691;-78
2023/03/19 01:10:12;;;;;;;;;;;;;;;14.67;46.75;96833.47;4232383;28;5096;-78
2023/03/19 01:12:18;;;;;;;;;;;;;;;14.65;46.76;96824.91;4235340;28;5650;-78
2023/03/19 01:14:21;;;;;;;;;;;;;;;14.64;47.06;96836.59;4228727;28;5639;-77
2023/03/19 01:16:24;;;;;;;;;;;;;;;14.64;46.98;96823.28;4235781;28;5764;-77
2023/03/19 01:18:27;;;;;;;;;;;;;;;14.65;47.08;96823.06;4235504;27;6319;-77
2023/03/19 01:20:30;;;;;;;;;;;;;;;14.67;46.92;96830.81;4229515;28;5706;-77
2023/03/19 01:22:37;;;;;;;;;;;;;;;14.69;47.25;96824.25;4235865;28;5792;-77
2023/03/19 01:24:40;;;;;;;;;;;;;;;14.68;47.21;96813.81;4227524;28;5093;-77
2023/03/19 01:26:43;;;;;;;;;;;;;;;14.68;47.23;96822.63;4219156;28;5674;-77
2023/03/19 01:28:46;;;;;;;;;;;;;;;14.68;47.59;96816.47;4221842;28;5654;-76
2023/03/19 01:30:48;;;;;;;;;;;;;;;14.66;47.78;96821.22;4234580;28;5845;-77
2023/03/19 01:32:52;;;;;;;;;;;;;;;14.65;47.65;96819.59;4227925;28;5664;-77
2023/03/19 01:34:55;;;;;;;;;;;;;;;14.65;47.61;96814.28;4226440;28;5674;-77
2023/03/19 01:36:58;;;;;;;;;;;;;;;14.64;47.98;96820.63;4232963;28;5806;-78
2023/03/19 01:39:02;;;;;;;;;;;;;;;14.64;48.04;96817.97;4231511;28;5853;-77
2023/03/19 01:41:06;;;;;;;;;;;;;;;14.60;47.86;96814.09;4219551;28;5762;-77
2023/03/19 01:43:14;;;;;;;;;;;;;;;14.60;48.21;96819.41;4234146;28;5642;-77
2023/03/19 01:45:37;;;;;;;;;;;;;;;14.58;47.92;96809.00;4231116;28;5750;-78
2023/03/19 01:47:43;;;;;;;;;;;;;;;14.54;48.03;96815.78;4265984;27;5584;-78
2023/03/19 01:49:52;;;;;;;;;;;;;;;14.54;48.29;96815.78;4219016;28;5877;-77
2023/03/19 01:51:57;;;;;;;;;;;;;;;14.50;48.56;96818.09;4231570;28;5116;-77
2023/03/19 01:54:06;;;;;;;;;;;;;;;14.50;48.62;96815.41;4231127;28;5650;-77
2023/03/19 01:56:13;;;;;;;;;;;;;;;14.50;48.37;96807.44;4223362;28;5798;-78
2023/03/19 01:58:16;;;;;;;;;;;;;;;14.51;48.43;96805.59;4222208;28;5838;-78
2023/03/19 02:00:19;;;;;;;;;;;;;;;14.53;48.73;96809.66;4231614;28;5835;-77
2023/03/19 02:02:28;;;;;;;;;;;;;;;14.55;48.76;96804.13;4230949;28;5787;-77
2023/03/19 02:04:33;;;;;;;;;;;;;;;14.55;48.51;96807.59;4223913;28;5721;-78
2023/03/19 02:06:37;;;;;;;;;;;;;;;14.55;48.47;96810.25;4236404;28;5642;-77
2023/03/19 02:08:42;;;;;;;;;;;;;;;14.54;48.76;96811.28;4234072;28;5779;-78
2023/03/19 02:10:47;;;;;;;;;;;;;;;14.59;48.69;96812.47;4234361;28;5752;-77
2023/03/19 02:12:50;;;;;;;;;;;;;;;14.57;48.76;96815.34;4219208;28;5833;-78
2023/03/19 02:14:53;;;;;;;;;;;;;;;14.57;48.49;96818.81;4223096;28;5650;-78
2023/03/19 02:16:56;;;;;;;;;;;;;;;14.53;48.82;96819.47;4235428;27;5658;-78
2023/03/19 02:19:00;;;;;;;;;;;;;;;14.51;49.08;96822.38;4229159;28;5740;-78
2023/03/19 02:21:07;;;;;;;;;;;;;;;14.54;48.80;96810.47;4236054;28;5757;-77
2023/03/19 02:23:19;;;;;;;;;;;;;;;14.52;48.78;96821.34;4234898;28;5658;-76
2023/03/19 02:25:28;;;;;;;;;;;;;;;14.50;49.22;96827.91;4228826;28;5736;-76
2023/03/19 02:27:33;;;;;;;;;;;;;;;14.50;48.97;96825.25;4235068;28;5072;-77
2023/03/19 02:29:36;;;;;;;;;;;;;;;14.48;49.25;96816.66;4225936;28;7701;-77
2023/03/19 02:31:38;;;;;;;;;;;;;;;14.47;49.28;96817.69;4229287;28;5721;-77
2023/03/19 02:33:41;;;;;;;;;;;;;;;14.46;49.07;96814.22;4234897;28;5984;-77
2023/03/19 02:35:46;;;;;;;;;;;;;;;14.46;49.00;96813.38;4234803;28;5650;-77
2023/03/19 02:37:49;;;;;;;;;;;;;;;14.46;49.21;96814.22;4234486;28;5654;-77
2023/03/19 02:39:57;;;;;;;;;;;;;;;14.46;49.18;96818.72;4224910;28;5745;-77
2023/03/19 02:42:02;;;;;;;;;;;;;;;14.46;49.01;96821.38;4225974;28;7690;-77
2023/03/19 02:44:07;;;;;;;;;;;;;;;14.46;49.31;96824.84;4234292;28;5740;-78
2023/03/19 02:46:12;;;;;;;;;;;;;;;14.46;49.11;96829.34;4233884;27;5646;-77
2023/03/19 02:48:16;;;;;;;;;;;;;;;14.45;49.00;96823.22;4233800;28;5743;-77
2023/03/19 02:50:19;;;;;;;;;;;;;;;14.46;48.98;96824.03;4233754;28;5661;-76
2023/03/19 02:52:22;;;;;;;;;;;;;;;14.47;48.91;96830.97;4218333;28;5671;-77
2023/03/19 02:54:25;;;;;;;;;;;;;;;14.47;48.94;96825.66;4218612;28;5759;-77
2023/03/19 02:56:28;;;;;;;;;;;;;;;14.46;48.97;96819.53;4217990;28;6368;-77
2023/03/19 02:58:31;;;;;;;;;;;;;;;14.47;49.27;96826.47;4223019;28;5650;-77
2023/03/19 03:00:36;;;;;;;;;;;;;;;14.47;49.07;96821.16;4231162;28;5638;-77
2023/03/19 03:02:39;;;;;;;;;;;;;;;14.47;48.93;96821.16;4228486;28;5664;-77
2023/03/19 03:04:42;;;;;;;;;;;;;;;14.44;49.04;96821.59;4225323;28;5850;-78
2023/03/19 03:06:45;;;;;;;;;;;;;;;14.45;49.34;96825.06;4227602;28;5658;-77
2023/03/19 03:08:48;;;;;;;;;;;;;;;14.44;49.14;96826.91;4233321;28;5650;-77
2023/03/19 03:10:50;;;;;;;;;;;;;;;14.45;49.00;96822.41;4235074;28;5890;-76
2023/03/19 03:12:54;;;;;;;;;;;;;;;14.44;48.94;96818.94;4234139;27;7710;-77
2023/03/19 03:14:56;;;;;;;;;;;;;;;14.45;48.96;96823.22;4234638;28;5654;-77
2023/03/19 03:17:01;;;;;;;;;;;;;;;14.43;49.23;96819.94;4234280;28;5659;-77
2023/03/19 03:19:04;;;;;;;;;;;;;;;14.45;49.11;96817.91;4232367;28;6341;-77
2023/03/19 03:21:07;;;;;;;;;;;;;;;14.46;49.05;96816.88;4226361;28;5758;-78
2023/03/19 03:23:10;;;;;;;;;;;;;;;14.49;48.92;96812.94;4224544;28;5769;-77
2023/03/19 03:25:13;;;;;;;;;;;;;;;14.49;48.89;96819.09;4233974;28;5797;-77
2023/03/19 03:27:16;;;;;;;;;;;;;;;14.50;48.86;96818.09;4234239;28;5102;-77
2023/03/19 03:29:19;;;;;;;;;;;;;;;14.50;49.26;96819.94;4233398;28;8416;-77
2023/03/19 03:31:22;;;;;;;;;;;;;;;14.49;49.33;96821.75;4228178;28;5650;-78
2023/03/19 03:33:27;;;;;;;;;;;;;;;14.48;49.10;96814.78;4226899;27;5867;-77
2023/03/19 03:35:29;;;;;;;;;;;;;;;14.48;49.09;96819.31;4221487;28;6825;-77
2023/03/19 03:37:33;;;;;;;;;;;;;;;14.47;49.34;96826.47;4234065;27;5703;-77
2023/03/19 03:39:36;;;;;;;;;;;;;;;14.46;49.20;96822.19;4230358;28;5749;-77
2023/03/19 03:41:39;;;;;;;;;;;;;;;14.46;49.36;96830.16;4232467;28;5750;-77
2023/03/19 03:43:42;;;;;;;;;;;;;;;14.46;49.03;96824.03;4234368;28;5662;-77
2023/03/19 03:45:46;;;;;;;;;;;;;;;14.44;49.04;96824.25;4235713;28;5763;-77
2023/03/19 03:47:49;;;;;;;;;;;;;;;14.45;49.04;96828.53;4235955;28;5960;-77
2023/03/19 03:49:54;;;;;;;;;;;;;;;14.46;49.16;96827.50;4227359;28;5688;-78
2023/03/19 03:51:57;;;;;;;;;;;;;;;14.49;48.94;96829.72;4221196;28;5689;-77
2023/03/19 03:54:00;;;;;;;;;;;;;;;14.48;49.01;96825.44;4226173;28;7708;-77
2023/03/19 03:56:02;;;;;;;;;;;;;;;14.48;49.19;96827.28;4235368;28;5717;-77
2023/03/19 03:58:05;;;;;;;;;;;;;;;14.48;49.13;96822.78;4228106;28;5658;-77
2023/03/19 04:00:09;;;;;;;;;;;;;;;14.51;49.03;96827.69;4232935;28;5663;-77
2023/03/19 04:02:12;;;;;;;;;;;;;;;14.53;49.01;96830.13;4236368;28;5650;-77
2023/03/19 04:04:15;;;;;;;;;;;;;;;14.51;49.27;96835.66;4232078;28;5659;-77
2023/03/19 04:06:22;;;;;;;;;;;;;;;14.49;49.34;96832.38;4222504;28;5668;-77
2023/03/19 04:08:25;;;;;;;;;;;;;;;14.50;49.13;96834.03;4221479;28;5671;-77
2023/03/19 04:10:28;;;;;;;;;;;;;;;14.48;49.38;96836.06;4237312;27;5638;-76
2023/03/19 04:12:31;;;;;;;;;;;;;;;14.49;49.31;96839.56;4237644;27;5772;-77
2023/03/19 04:14:34;;;;;;;;;;;;;;;14.50;49.46;96846.53;4225394;27;5686;-77
2023/03/19 04:16:37;;;;;;;;;;;;;;;14.49;49.46;96843.03;4233217;28;5669;-77
2023/03/19 04:18:40;;;;;;;;;;;;;;;14.49;49.43;96845.69;4237240;27;6335;-76
2023/03/19 04:20:43;;;;;;;;;;;;;;;14.50;49.42;96846.53;4235524;28;5641;-77
2023/03/19 04:22:47;;;;;;;;;;;;;;;14.49;49.34;96847.53;4235416;28;5114;-77
2023/03/19 04:24:50;;;;;;;;;;;;;;;14.47;49.20;96836.28;4220428;28;5678;-77
2023/03/19 04:26:52;;;;;;;;;;;;;;;14.48;49.23;96846.72;4224299;28;5373;-77
2023/03/19 04:28:55;;;;;;;;;;;;;;;14.49;49.04;96840.38;4221648;27;7378;-76
2023/03/19 04:30:59;;;;;;;;;;;;;;;14.51;49.05;96838.31;4231266;28;5790;-77
2023/03/19 04:33:03;;;;;;;;;;;;;;;14.53;48.84;96836.25;4220307;28;5742;-77
2023/03/19 04:35:07;;;;;;;;;;;;;;;14.52;48.93;96829.31;4221903;28;5758;-77
2023/03/19 04:37:11;;;;;;;;;;;;;;;14.52;48.90;96833.81;4221706;28;5700;-76
2023/03/19 04:39:15;;;;;;;;;;;;;;;14.51;49.15;96834.84;4233458;27;5687;-77
2023/03/19 04:41:18;;;;;;;;;;;;;;;14.52;48.94;96845.28;4236140;28;5641;-78
2023/03/19 04:43:22;;;;;;;;;;;;;;;14.51;49.07;96838.31;4234168;27;5820;-77
2023/03/19 04:45:25;;;;;;;;;;;;;;;14.54;49.38;96848.53;4226162;28;5754;-77
2023/03/19 04:47:27;;;;;;;;;;;;;;;14.55;49.20;96844.84;4236625;28;5620;-77
2023/03/19 04:49:31;;;;;;;;;;;;;;;14.56;49.30;96848.31;4230637;28;5679;-77
2023/03/19 04:51:33;;;;;;;;;;;;;;;14.51;49.48;96848.97;4230444;28;5804;-78
2023/03/19 04:53:37;;;;;;;;;;;;;;;14.45;49.69;96839.19;4233182;28;5739;-77
2023/03/19 04:55:41;;;;;;;;;;;;;;;14.39;50.12;96845.34;4221914;28;5604;-77
2023/03/19 04:57:44;;;;;;;;;;;;;;;14.40;49.92;96846.97;4236223;28;5721;-77
2023/03/19 04:59:47;;;;;;;;;;;;;;;14.40;49.96;96857.59;4235345;27;6320;-77
2023/03/19 05:01:50;;;;;;;;;;;;;;;14.40;50.04;96856.78;4236748;28;5650;-77
2023/03/19 05:03:53;;;;;;;;;;;;;;;14.42;50.20;96860.06;4235764;28;5613;-77
2023/03/19 05:05:55;;;;;;;;;;;;;;;14.42;50.10;96847.56;4236669;27;5654;-77
2023/03/19 05:07:58;;;;;;;;;;;;;;;14.42;50.19;96847.56;4236949;27;5812;-78
2023/03/19 05:10:01;;;;;;;;;;;;;;;14.42;50.41;96862.72;4236733;28;5754;-78
2023/03/19 05:12:07;;;;;;;;;;;;;;;14.41;50.41;96853.09;4237000;28;5791;-77
2023/03/19 05:14:10;;;;;;;;;;;;;;;14.41;50.52;96848.59;4236571;28;5665;-77
2023/03/19 05:16:13;;;;;;;;;;;;;;;14.38;50.43;96862.31;4235383;28;5597;-77
2023/03/19 05:18:16;;;;;;;;;;;;;;;14.36;50.40;96855.56;4237424;28;5649;-77
2023/03/19 05:20:19;;;;;;;;;;;;;;;14.36;50.84;96855.56;4236280;27;5646;-77
2023/03/19 05:22:22;;;;;;;;;;;;;;;14.33;50.84;96853.34;4234463;28;5718;-78
2023/03/19 05:24:25;;;;;;;;;;;;;;;14.34;50.78;96860.31;4230678;28;5691;-78
2023/03/19 05:26:28;;;;;;;;;;;;;;;14.35;50.75;96859.28;4229172;28;5674;-78
2023/03/19 05:28:33;;;;;;;;;;;;;;;14.34;50.83;96858.47;4236472;28;5678;-78
2023/03/19 05:30:36;;;;;;;;;;;;;;;14.34;50.75;96858.47;4230292;28;5646;-78
2023/03/19 05:32:39;;;;;;;;;;;;;;;14.35;51.07;96860.09;4231611;28;5124;-78
2023/03/19 05:34:43;;;;;;;;;;;;;;;14.35;51.12;96857.44;4219606;28;7756;-77
2023/03/19 05:36:46;;;;;;;;;;;;;;;14.35;50.85;96860.09;4229535;28;5875;-77
2023/03/19 05:38:49;;;;;;;;;;;;;;;14.31;50.91;96850.91;4234920;28;5655;-78
2023/03/19 05:40:52;;;;;;;;;;;;;;;14.32;50.94;96849.06;4231386;28;5745;-77
2023/03/19 05:42:55;;;;;;;;;;;;;;;14.30;51.26;96853.78;4222231;28;5691;-77
2023/03/19 05:44:59;;;;;;;;;;;;;;;14.30;51.06;96854.59;4232860;28;6191;-77
2023/03/19 05:47:02;;;;;;;;;;;;;;;14.31;51.23;96866.06;4235806;27;5666;-77
2023/03/19 05:49:05;;;;;;;;;;;;;;;14.28;51.09;96854.81;4235777;28;5666;-77
2023/03/19 05:51:08;;;;;;;;;;;;;;;14.29;51.17;96852.97;4236222;28;5638;-77
2023/03/19 05:53:11;;;;;;;;;;;;;;;14.31;51.39;96852.75;4235115;28;5761;-77
2023/03/19 05:55:13;;;;;;;;;;;;;;;14.31;51.36;96855.41;4223950;28;5811;-77
2023/03/19 05:57:16;;;;;;;;;;;;;;;14.32;51.33;96860.53;4234579;28;5657;-77
2023/03/19 05:59:20;;;;;;;;;;;;;;;14.31;51.11;96864.22;4221205;28;5671;-76
2023/03/19 06:01:24;;;;;;;;;;;;;;;14.32;51.38;96862.38;4220821;28;6357;-77
2023/03/19 06:03:27;;;;;;;;;;;;;;;14.34;51.14;96870.94;4230666;28;5653;-77
2023/03/19 06:05:30;;;;;;;;;;;;;;;14.35;51.14;96865.41;4233763;28;5666;-77
2023/03/19 06:07:33;;;;;;;;;;;;;;;14.35;51.29;96870.72;4233593;27;5651;-76
2023/03/19 06:09:36;;;;;;;;;;;;;;;14.36;51.18;96871.53;4235628;28;5721;-76
2023/03/19 06:11:39;;;;;;;;;;;;;;;14.38;51.15;96874.78;4236214;28;5770;-77
2023/03/19 06:13:43;;;;;;;;;;;;;;;14.39;51.19;96863.16;4235076;27;5658;-76
2023/03/19 06:15:48;;;;;;;;;;;;;;;14.39;51.18;96866.63;4218793;28;5671;-76
2023/03/19 06:17:52;;;;;;;;;;;;;;;14.39;51.18;96866.63;4217941;28;5869;-77
2023/03/19 06:19:55;;;;;;;;;;;;;;;14.40;50.81;96873.56;4223929;28;5952;-77
2023/03/19 06:21:58;;;;;;;;;;;;;;;14.44;50.78;96873.94;4236006;28;5638;-76
2023/03/19 06:24:02;;;;;;;;;;;;;;;14.44;51.06;96884.59;4231164;27;6549;-77
2023/03/19 06:26:05;;;;;;;;;;;;;;;14.46;50.80;96878.03;4235504;27;5768;-77
2023/03/19 06:28:08;;;;;;;;;;;;;;;14.45;50.70;96879.06;4224612;28;6067;-76
2023/03/19 06:30:12;;;;;;;;;;;;;;;14.50;50.60;96883.78;4228062;28;5748;-77
2023/03/19 06:32:15;;;;;;;;;;;;;;;14.50;50.53;96887.25;4226493;28;5794;-78
2023/03/19 06:34:19;;;;;;;;;;;;;;;14.52;50.62;96887.84;4225382;28;5680;-78
2023/03/19 06:36:22;;;;;;;;;;;;;;;14.55;50.76;96890.06;4226318;28;6346;-77
2023/03/19 06:38:25;;;;;;;;;;;;;;;14.56;50.49;96881.03;4234390;28;5666;-77
2023/03/19 06:40:28;;;;;;;;;;;;;;;14.58;50.33;96891.47;4220485;28;5675;-77
2023/03/19 06:42:31;;;;;;;;;;;;;;;14.59;50.23;96894.94;4229808;28;5804;-78
2023/03/19 06:44:34;;;;;;;;;;;;;;;14.62;50.52;96891.88;4224828;28;5672;-77
2023/03/19 06:46:37;;;;;;;;;;;;;;;14.63;50.40;96894.31;4235069;28;5653;-76
2023/03/19 06:48:40;;;;;;;;;;;;;;;14.66;50.13;96903.69;4232929;27;5642;-78
2023/03/19 06:50:45;;;;;;;;;;;;;;;14.68;50.31;96899.78;4230775;28;6301;-71
2023/03/19 06:52:48;;;;;;;;;;;;;;;14.70;49.95;96891.59;4228302;28;5810;-71
2023/03/19 06:54:50;;;;;;;;;;;;;;;14.72;50.05;96901.00;4231790;28;5736;-71
2023/03/19 06:56:53;;;;;;;;;;;;;;;14.73;49.97;96904.47;4227676;28;5668;-70
2023/03/19 06:58:56;;;;;;;;;;;;;;;14.74;49.90;96898.94;4222589;28;5819;-70
2023/03/19 07:01:00;;;;;;;;;;;;;;;14.75;50.07;96892.56;4233957;28;5650;-70
2023/03/19 07:03:06;;;;;;;;;;;;;;;14.77;50.05;96903.00;4234719;28;5814;-70
2023/03/19 07:05:09;;;;;;;;;;;;;;;14.76;50.06;96902.19;4234887;28;5825;-70
2023/03/19 07:07:13;;;;;;;;;;;;;;;14.78;49.79;96910.75;4234794;28;5657;-70
2023/03/19 07:09:16;;;;;;;;;;;;;;;14.77;49.83;96908.31;4235366;27;5666;-70
2023/03/19 07:11:19;;;;;;;;;;;;;;;14.77;49.84;96910.97;4234540;28;5650;-71
2023/03/19 07:13:22;;;;;;;;;;;;;;;14.79;49.91;96919.56;4234225;28;5853;-71
2023/03/19 07:15:25;;;;;;;;;;;;;;;14.82;49.72;96916.47;4233061;28;5654;-71
2023/03/19 07:17:29;;;;;;;;;;;;;;;14.81;49.74;96920.97;4232611;27;5873;-71
2023/03/19 07:19:32;;;;;;;;;;;;;;;14.78;49.68;96918.75;4230321;28;5646;-70
2023/03/19 07:21:35;;;;;;;;;;;;;;;14.85;49.73;96934.69;4232797;28;5657;-69
2023/03/19 07:23:41;;;;;;;;;;;;;;;14.86;49.79;96936.31;4233405;28;6353;-71
2023/03/19 07:25:46;;;;;;;;;;;;;;;14.81;49.65;96933.47;4231973;28;5613;-71
2023/03/19 07:27:50;;;;;;;;;;;;;;;14.87;49.53;96932.59;4233034;28;5661;-70
2023/03/19 07:29:56;;;;;;;;;;;;;;;14.87;49.69;96937.94;4232893;28;5749;-69
2023/03/19 07:31:59;;;;;;;;;;;;;;;14.88;49.51;96941.41;4234380;28;5653;-71
2023/03/19 07:34:02;;;;;;;;;;;;;;;14.89;49.70;96946.50;4232397;28;5653;-71
2023/03/19 07:36:06;;;;;;;;;;;;;;;14.89;49.74;96946.50;4232873;27;5662;-71
2023/03/19 07:38:09;;;;;;;;;;;;;;;14.90;49.24;96950.81;4225642;28;5753;-70
2023/03/19 07:40:15;;;;;;;;;;;;;;;14.88;49.68;96950.22;4231183;28;5666;-70
2023/03/19 07:42:18;;;;;;;;;;;;;;;14.85;49.60;96955.97;4233774;28;5710;-70
2023/03/19 07:44:21;;;;;;;;;;;;;;;14.88;49.50;96954.72;4233789;27;5654;-71
2023/03/19 07:46:24;;;;;;;;;;;;;;;14.88;49.44;96955.53;4225947;28;5651;-71
2023/03/19 07:48:27;;;;;;;;;;;;;;;14.87;49.81;96959.22;4234461;28;5686;-71
2023/03/19 07:50:30;;;;;;;;;;;;;;;14.85;49.82;96967.44;4232572;28;5755;-71
2023/03/19 07:52:34;;;;;;;;;;;;;;;14.86;49.81;96962.91;4233421;28;5782;-72
2023/03/19 07:54:37;;;;;;;;;;;;;;;14.85;49.56;96969.28;4233084;28;5669;-71
2023/03/19 07:56:41;;;;;;;;;;;;;;;14.84;49.49;96965.00;4224693;28;5707;-70
2023/03/19 07:58:44;;;;;;;;;;;;;;;14.83;49.88;96968.66;4233167;28;5748;-71
2023/03/19 08:00:47;;;;;;;;;;;;;;;14.84;49.80;96967.66;4226643;28;5670;-71
2023/03/19 08:03:03;;;;;;;;;;;;;;;14.84;49.57;96968.47;4224902;28;5097;-71
2023/03/19 08:05:09;;;;;;;;;;;;;;;14.83;49.82;96968.66;4222228;28;5811;-69
2023/03/19 08:07:13;;;;;;;;;;;;;;;14.83;49.96;96968.66;4225340;28;5678;-70
2023/03/19 08:09:18;;;;;;;;;;;;;;;14.84;49.70;96970.31;4234594;28;5650;-70
2023/03/19 08:11:29;;;;;;;;;;;;;;;14.81;49.83;96971.53;4233222;28;5663;-70
2023/03/19 08:13:37;;;;;;;;;;;;;;;14.82;49.98;96967.03;4227010;28;5646;-70
2023/03/19 08:15:45;;;;;;;;;;;;;;;14.77;49.68;96964.22;4227594;28;5812;-71
2023/03/19 08:17:58;;;;;;;;;;;;;;;14.77;49.89;96975.66;4232753;27;5741;-70
2023/03/19 08:20:08;;;;;;;;;;;;;;;14.80;50.04;96979.75;4232565;28;5674;-69
2023/03/19 08:22:12;;;;;;;;;;;;;;;14.79;49.85;96988.75;4231092;28;5696;-70
2023/03/19 08:24:16;;;;;;;;;;;;;;;14.75;49.87;96982.25;4231511;28;5729;-71
2023/03/19 08:26:19;;;;;;;;;;;;;;;14.79;50.19;96988.75;4232286;28;5649;-71
2023/03/19 08:28:23;;;;;;;;;;;;;;;14.78;49.92;96998.59;4231975;28;5658;-71
2023/03/19 08:30:27;;;;;;;;;;;;;;;14.78;50.02;96992.44;4233453;28;5717;-70
2023/03/19 08:32:31;;;;;;;;;;;;;;;14.76;50.15;96990.00;4234256;28;5649;-71
2023/03/19 08:34:34;;;;;;;;;;;;;;;14.75;50.31;96987.56;4236034;28;6381;-71
2023/03/19 08:36:37;;;;;;;;;;;;;;;14.74;50.24;96986.75;4224750;28;5675;-70
2023/03/19 08:38:42;;;;;;;;;;;;;;;14.74;50.21;96994.72;4219225;28;5682;-70
2023/03/19 08:40:46;;;;;;;;;;;;;;;14.73;50.23;96989.63;4230747;28;5736;-70
2023/03/19 08:42:49;;;;;;;;;;;;;;;14.74;50.42;96991.25;4235760;28;5701;-70
2023/03/19 08:44:53;;;;;;;;;;;;;;;14.75;50.43;96991.03;4235623;28;5815;-70
2023/03/19 08:46:57;;;;;;;;;;;;;;;14.77;50.40;96996.13;4234908;28;6723;-69
2023/03/19 08:49:00;;;;;;;;;;;;;;;14.76;50.21;96999.84;4235709;27;5115;-69
2023/03/19 08:51:04;;;;;;;;;;;;;;;14.77;50.50;96996.13;4235690;28;5748;-70
2023/03/19 08:53:09;;;;;;;;;;;;;;;14.74;50.35;97012.53;4235887;27;5370;-71
2023/03/19 08:55:12;;;;;;;;;;;;;;;14.74;50.57;97009.88;4235964;28;7703;-70
2023/03/19 08:57:15;;;;;;;;;;;;;;;14.74;50.36;97016.03;4235173;28;5748;-70
2023/03/19 08:59:18;;;;;;;;;;;;;;;14.73;50.68;97014.41;4235217;28;5639;-70
2023/03/19 09:01:22;;;;;;;;;;;;;;;14.72;50.77;97017.25;4235798;28;5654;-72
2023/03/19 09:03:27;;;;;;;;;;;;;;;14.72;50.83;97012.75;4235767;28;5756;-70
2023/03/19 09:05:30;;;;;;;;;;;;;;;14.73;50.79;97013.56;4235700;28;5704;-71
2023/03/19 09:07:33;;;;;;;;;;;;;;;14.72;50.62;97017.25;4235232;27;5724;-71
2023/03/19 09:09:37;;;;;;;;;;;;;;;14.71;50.81;97012.94;4235156;28;5806;-71
2023/03/19 09:11:40;;;;;;;;;;;;;;;14.68;50.89;97013.38;4235379;28;5659;-70
2023/03/19 09:13:48;;;;;;;;;;;;;;;14.68;51.12;97014.19;4231875;27;5830;-71
2023/03/19 09:15:51;;;;;;;;;;;;;;;14.66;51.00;97010.94;4222246;28;5861;-71
2023/03/19 09:17:57;;;;;;;;;;;;;;;14.64;51.36;97004.22;4235194;28;5813;-71
2023/03/19 09:20:03;;;;;;;;;;;;;;;14.66;51.36;97010.13;4235549;28;5774;-69
2023/03/19 09:22:06;;;;;;;;;;;;;;;14.64;51.54;96996.22;4235757;28;5729;-70
2023/03/19 09:24:09;;;;;;;;;;;;;;;14.66;51.62;97002.16;4235323;28;5088;-70
2023/03/19 09:26:12;;;;;;;;;;;;;;;14.70;51.67;97001.50;4234982;28;5741;-70
2023/03/19 09:28:15;;;;;;;;;;;;;;;14.75;51.57;96992.88;4235170;27;5634;-70
2023/03/19 09:30:18;;;;;;;;;;;;;;;14.77;51.50;96996.97;4234885;27;5733;-71
2023/03/19 09:32:21;;;;;;;;;;;;;;;14.76;51.84;97000.66;4234926;27;5642;-70
2023/03/19 09:34:24;;;;;;;;;;;;;;;14.80;52.02;97001.03;4218214;28;6507;-71
2023/03/19 09:36:29;;;;;;;;;;;;;;;14.81;51.63;96998.16;4218391;28;5671;-70
2023/03/19 09:38:32;;;;;;;;;;;;;;;14.84;51.58;96996.94;4226720;28;5851;-71
2023/03/19 09:40:38;;;;;;;;;;;;;;;14.88;52.05;97002.63;4228882;28;5740;-71
2023/03/19 09:42:53;;;;;;;;;;;;;;;14.91;51.92;97002.19;4235557;27;5737;-71
2023/03/19 09:44:56;;;;;;;;;;;;;;;14.96;52.08;97005.03;4235135;27;5674;-72
2023/03/19 09:47:08;;;;;;;;;;;;;;;14.99;51.91;96994.75;4234625;28;5645;-70
2023/03/19 09:49:21;;;;;;;;;;;;;;;15.00;51.99;97001.72;4235500;28;5758;-70
2023/03/19 09:51:35;;;;;;;;;;;;;;;15.00;51.87;97006.22;4234988;27;5685;-71
2023/03/19 09:53:44;;;;;;;;;;;;;;;15.01;52.15;97014.00;4234783;28;5661;-71
2023/03/19 09:55:49;;;;;;;;;;;;;;;15.01;51.81;97000.69;4234613;28;5741;-71
2023/03/19 09:57:54;;;;;;;;;;;;;;;15.03;51.89;97003.13;4234216;28;5642;-71
2023/03/19 09:59:57;;;;;;;;;;;;;;;14.99;52.00;97004.59;4234119;28;5851;-71
2023/03/19 10:02:33;;;;;;;;;;;;;;;14.98;52.14;97001.13;4234341;28;7675;-70
2023/03/19 10:04:57;;;;;;;;;;;;;;;14.99;52.22;97005.41;4206355;28;5970;-71
2023/03/19 10:07:11;;;;;;;;;;;;;;;15.01;51.97;97002.53;4234482;28;5769;-71
2023/03/19 10:09:30;;;;;;;;;;;;;;;15.00;52.33;97003.56;4233006;28;5753;-71
2023/03/19 10:11:44;;;;;;;;;;;;;;;14.96;52.19;97000.53;4227234;27;5650;-70
2023/03/19 10:13:59;;;;;;;;;;;;;;;14.88;52.42;96998.13;4233942;28;5729;-70
2023/03/19 10:16:05;;;;;;;;;;;;;;;14.82;52.16;96997.13;4234090;28;5728;-70
2023/03/19 10:18:12;;;;;;;;;;;;;;;14.85;52.52;97001.22;4234308;28;5666;-69
2023/03/19 10:20:23;;;;;;;;;;;;;;;14.90;52.24;97008.53;4234189;28;5843;-70
2023/03/19 10:22:36;;;;;;;;;;;;;;;14.90;52.13;97006.69;4234264;28;6482;-71
2023/03/19 10:24:46;;;;;;;;;;;;;;;14.91;52.37;97003.00;4234505;27;5749;-70
2023/03/19 10:26:58;;;;;;;;;;;;;;;14.94;52.48;97005.22;4233694;28;5642;-71
2023/03/19 10:29:06;;;;;;;;;;;;;;;14.95;52.51;97001.56;4234616;27;5716;-71
2023/03/19 10:31:22;;;;;;;;;;;;;;;14.98;52.21;97005.63;4234201;28;5772;-70
2023/03/19 10:33:31;;;;;;;;;;;;;;;14.97;52.29;97002.16;4234285;27;5736;-70
2023/03/19 10:35:47;;;;;;;;;;;;;;;14.94;52.30;97002.56;4234414;27;5634;-70
2023/03/19 10:37:54;;;;;;;;;;;;;;;14.95;52.58;97012.22;4234077;28;6139;-70
2023/03/19 10:40:14;;;;;;;;;;;;;;;14.93;52.47;97006.25;4234265;28;5658;-71
2023/03/19 10:42:47;;;;;;;;;;;;;;;14.92;52.56;97009.94;4233726;28;5650;-70
2023/03/19 10:44:56;;;;;;;;;;;;;;;14.94;52.56;97015.06;4233922;28;5732;-72
2023/03/19 10:47:13;;;;;;;;;;;;;;;14.82;52.64;97004.28;4234712;28;5670;-71
2023/03/19 10:49:19;;;;;;;;;;;;;;;14.78;52.52;97009.22;4226651;27;5692;-72
2023/03/19 10:51:27;;;;;;;;;;;;;;;14.75;52.85;97008.84;4217362;28;5663;-70
2023/03/19 10:53:35;;;;;;;;;;;;;;;14.75;52.68;97006.19;4226141;28;5649;-71
2023/03/19 10:55:51;;;;;;;;;;;;;;;14.78;52.74;97009.22;4233614;28;5626;-71
2023/03/19 10:58:19;;;;;;;;;;;;;;;14.78;52.79;97011.06;4232064;27;5777;-71